createdAt,value
2022-08-31T00:02:10.922Z,16.25
2022-08-31T00:04:39.950Z,16.24
2022-08-31T00:07:08.779Z,16.24
2022-08-31T00:09:37.174Z,16.25
2022-08-31T00:12:05.607Z,16.25
2022-08-31T00:14:33.856Z,16.24
2022-08-31T00:17:02.319Z,16.23
2022-08-31T00:19:30.861Z,16.21
2022-08-31T00:21:59.379Z,16.22
2022-08-31T00:24:27.726Z,16.22
2022-08-31T00:26:56.432Z,16.22
2022-08-31T00:29:24.530Z,16.22
2022-08-31T00:31:53.386Z,16.22
2022-08-31T00:34:22.984Z,16.22
2022-08-31T00:36:51.370Z,16.22
2022-08-31T00:39:19.525Z,16.22
2022-08-31T00:41:48.030Z,16.24
2022-08-31T00:44:16.553Z,16.22
2022-08-31T00:46:45.043Z,16.21
2022-08-31T00:49:23.852Z,16.19
2022-08-31T00:51:56.812Z,16.16
2022-08-31T00:54:30.582Z,16.13
2022-08-31T00:56:59.424Z,16.11
2022-08-31T00:59:28.072Z,16.11
2022-08-31T01:03:01.513Z,16.09
2022-08-31T01:05:31.606Z,16.12
2022-08-31T01:08:01.362Z,16.14
2022-08-31T01:10:35.224Z,16.15
2022-08-31T01:13:04.482Z,16.15
2022-08-31T01:15:32.984Z,16.16
2022-08-31T01:18:06.448Z,16.15
2022-08-31T01:20:51.866Z,16.10
2022-08-31T01:23:32.428Z,16.07
2022-08-31T01:26:03.880Z,16.06
2022-08-31T01:28:32.320Z,16.05
2022-08-31T01:31:23.948Z,16.01
2022-08-31T01:33:52.320Z,16.02
2022-08-31T01:36:21.247Z,16.02
2022-08-31T01:38:53.079Z,15.95
2022-08-31T01:41:22.903Z,15.91
2022-08-31T01:43:53.104Z,15.93
2022-08-31T01:46:21.859Z,15.93
2022-08-31T01:48:50.841Z,15.95
2022-08-31T01:51:22.112Z,15.97
2022-08-31T01:53:53.441Z,15.98
2022-08-31T01:56:28.286Z,15.96
2022-08-31T01:58:58.236Z,15.95
2022-08-31T02:01:51.329Z,15.94
2022-08-31T02:04:23.291Z,15.92
2022-08-31T02:06:58.257Z,15.90
2022-08-31T02:09:27.653Z,15.87
2022-08-31T02:11:55.933Z,15.83
2022-08-31T02:14:24.227Z,15.83
2022-08-31T02:16:52.625Z,15.84
2022-08-31T02:19:20.802Z,15.85
2022-08-31T02:21:49.800Z,15.82
2022-08-31T02:24:18.407Z,15.80
2022-08-31T02:26:49.371Z,15.82
2022-08-31T02:29:20.072Z,15.81
2022-08-31T02:31:48.380Z,15.75
2022-08-31T02:34:17.414Z,15.74
2022-08-31T02:36:46.309Z,15.73
2022-08-31T02:39:15.838Z,15.74
2022-08-31T02:41:45.617Z,15.67
2022-08-31T02:44:14.837Z,15.59
2022-08-31T02:46:43.051Z,15.52
2022-08-31T02:49:21.930Z,15.46
2022-08-31T02:51:50.407Z,15.44
2022-08-31T02:54:18.587Z,15.43
2022-08-31T02:56:48.356Z,15.41
2022-08-31T02:59:19.961Z,15.41
2022-08-31T03:01:48.516Z,15.39
2022-08-31T03:04:17.776Z,15.36
2022-08-31T03:06:48.955Z,15.33
2022-08-31T03:09:17.333Z,15.31
2022-08-31T03:11:45.959Z,15.31
2022-08-31T03:14:14.265Z,15.30
2022-08-31T03:16:42.775Z,15.30
2022-08-31T03:19:11.605Z,15.29
2022-08-31T03:21:39.964Z,15.28
2022-08-31T03:24:09.431Z,15.28
2022-08-31T03:26:38.208Z,15.28
2022-08-31T03:29:06.689Z,15.29
2022-08-31T03:31:55.061Z,15.28
2022-08-31T03:34:23.945Z,15.25
2022-08-31T03:36:52.180Z,15.23
2022-08-31T03:39:21.026Z,15.22
2022-08-31T03:41:49.295Z,15.21
2022-08-31T03:44:21.872Z,15.21
2022-08-31T03:46:50.802Z,15.21
2022-08-31T03:49:20.548Z,15.24
2022-08-31T03:52:07.206Z,15.24
2022-08-31T03:54:43.602Z,15.22
2022-08-31T03:57:12.430Z,15.19
2022-08-31T03:59:40.509Z,15.16
2022-08-31T04:02:31.901Z,15.14
2022-08-31T04:05:21.386Z,15.12
2022-08-31T04:08:08.685Z,15.12
2022-08-31T04:11:11.907Z,15.12
2022-08-31T04:13:49.867Z,15.15
2022-08-31T04:16:37.108Z,15.14
2022-08-31T04:19:17.822Z,15.13
2022-08-31T04:21:56.083Z,15.14
2022-08-31T04:24:25.160Z,15.14
2022-08-31T04:26:53.977Z,15.19
2022-08-31T04:29:23.667Z,15.22
2022-08-31T04:31:53.240Z,15.30
2022-08-31T04:34:22.076Z,15.92
2022-08-31T04:36:50.252Z,16.92
2022-08-31T04:39:19.337Z,17.37
2022-08-31T04:41:47.714Z,17.35
2022-08-31T04:44:19.906Z,17.52
2022-08-31T04:46:50.390Z,18.21
2022-08-31T04:49:18.626Z,18.49
2022-08-31T04:51:47.192Z,18.56
2022-08-31T04:54:16.043Z,18.57
2022-08-31T04:56:45.536Z,18.58
2022-08-31T04:59:18.928Z,18.25
2022-08-31T05:02:06.445Z,17.82
2022-08-31T05:04:41.427Z,17.43
2022-08-31T05:07:09.572Z,17.17
2022-08-31T05:09:37.818Z,17.04
2022-08-31T05:12:06.175Z,16.93
2022-08-31T05:14:35.948Z,16.84
2022-08-31T05:17:15.084Z,16.76
2022-08-31T05:19:44.257Z,16.69
2022-08-31T05:22:14.727Z,16.65
2022-08-31T05:24:45.453Z,16.63
2022-08-31T05:27:14.293Z,16.65
2022-08-31T05:29:42.771Z,16.60
2022-08-31T05:32:40.104Z,16.51
2022-08-31T05:35:12.165Z,16.45
2022-08-31T05:37:42.471Z,16.41
2022-08-31T05:40:11.603Z,16.40
2022-08-31T05:42:40.227Z,16.45
2022-08-31T05:45:09.306Z,16.59
2022-08-31T05:47:38.160Z,16.69
2022-08-31T05:50:08.309Z,16.78
2022-08-31T05:52:40.799Z,16.85
2022-08-31T05:55:09.297Z,16.90
2022-08-31T05:57:40.387Z,17.00
2022-08-31T06:00:10.638Z,17.10
2022-08-31T06:02:44.346Z,17.17
2022-08-31T06:05:15.104Z,17.19
2022-08-31T06:07:47.295Z,17.20
2022-08-31T06:10:18.507Z,17.26
2022-08-31T06:12:47.445Z,17.36
2022-08-31T06:15:18.529Z,17.36
2022-08-31T06:17:46.908Z,17.38
2022-08-31T06:20:18.005Z,17.49
2022-08-31T06:22:48.466Z,17.63
2022-08-31T06:25:39.861Z,17.75
2022-08-31T06:28:15.583Z,17.89
2022-08-31T06:30:54.716Z,18.00
2022-08-31T06:33:23.592Z,18.03
2022-08-31T06:36:03.734Z,18.10
2022-08-31T06:38:51.787Z,18.26
2022-08-31T06:41:43.267Z,18.34
2022-08-31T06:44:35.237Z,18.35
2022-08-31T06:47:23.504Z,18.45
2022-08-31T06:49:53.251Z,18.56
2022-08-31T06:52:22.333Z,18.73
2022-08-31T06:55:06.241Z,18.89
2022-08-31T06:57:43.241Z,18.93
2022-08-31T07:00:31.113Z,18.91
2022-08-31T07:03:33.228Z,18.96
2022-08-31T07:06:14.739Z,19.05
2022-08-31T07:08:44.732Z,19.05
2022-08-31T07:11:35.152Z,19.01
2022-08-31T07:14:05.440Z,18.90
2022-08-31T07:16:34.219Z,18.92
2022-08-31T07:19:06.983Z,18.97
2022-08-31T07:21:45.611Z,18.97
2022-08-31T07:24:18.440Z,18.99
2022-08-31T07:26:49.559Z,19.10
2022-08-31T07:29:23.448Z,19.22
2022-08-31T07:31:52.235Z,19.27
2022-08-31T07:34:29.058Z,19.25
2022-08-31T07:37:36.263Z,19.29
2022-08-31T07:40:24.333Z,19.39
2022-08-31T07:42:55.384Z,19.50
2022-08-31T07:45:29.182Z,19.52
2022-08-31T07:48:00.655Z,19.50
2022-08-31T07:50:45.063Z,19.51
2022-08-31T07:53:25.102Z,19.55
2022-08-31T07:56:22.321Z,19.55
2022-08-31T07:58:51.719Z,19.40
2022-08-31T08:01:22.804Z,19.31
2022-08-31T08:03:55.617Z,19.35
2022-08-31T08:06:42.442Z,19.52
2022-08-31T08:09:25.016Z,19.54
2022-08-31T08:12:22.557Z,19.41
2022-08-31T08:15:15.596Z,19.55
2022-08-31T08:17:57.363Z,19.57
2022-08-31T08:20:37.273Z,19.45
2022-08-31T08:23:11.700Z,19.36
2022-08-31T08:26:21.106Z,19.44
2022-08-31T08:29:16.206Z,19.56
2022-08-31T08:31:56.324Z,19.72
2022-08-31T08:34:31.521Z,19.83
2022-08-31T08:37:02.541Z,19.82
2022-08-31T08:39:30.997Z,19.82
2022-08-31T08:42:24.189Z,19.88
2022-08-31T08:44:52.315Z,19.94
2022-08-31T08:47:25.742Z,20.03
2022-08-31T08:50:06.530Z,20.21
2022-08-31T08:52:45.545Z,20.20
2022-08-31T08:55:19.403Z,20.15
2022-08-31T08:57:50.412Z,20.22
2022-08-31T09:00:22.193Z,20.22
2022-08-31T09:03:04.057Z,20.16
2022-08-31T09:06:10.322Z,20.02
2022-08-31T09:08:59.287Z,19.84
2022-08-31T09:11:46.893Z,19.83
2022-08-31T09:14:38.395Z,19.79
2022-08-31T09:17:43.619Z,19.73
2022-08-31T09:20:13.468Z,19.59
2022-08-31T09:22:50.858Z,19.56
2022-08-31T09:25:33.535Z,19.54
2022-08-31T09:28:36.241Z,19.59
2022-08-31T09:31:05.351Z,19.61
2022-08-31T09:33:46.712Z,19.67
2022-08-31T09:36:18.083Z,19.85
2022-08-31T09:38:47.235Z,20.08
2022-08-31T09:41:33.484Z,20.22
2022-08-31T09:44:22.963Z,20.40
2022-08-31T09:46:54.173Z,20.48
2022-08-31T09:49:37.414Z,20.54
2022-08-31T09:52:46.760Z,20.71
2022-08-31T09:55:21.483Z,20.75
2022-08-31T09:58:08.637Z,20.85
2022-08-31T10:00:47.052Z,20.95
2022-08-31T10:03:23.501Z,20.92
2022-08-31T10:05:54.717Z,20.94
2022-08-31T10:08:30.868Z,21.03
2022-08-31T10:11:24.962Z,21.11
2022-08-31T10:14:26.787Z,21.22
2022-08-31T10:17:15.310Z,21.11
2022-08-31T10:20:06.238Z,20.97
2022-08-31T10:22:43.152Z,20.80
2022-08-31T10:25:21.665Z,20.62
2022-08-31T10:28:22.507Z,20.70
2022-08-31T10:30:59.855Z,20.82
2022-08-31T10:34:13.135Z,20.70
2022-08-31T10:36:42.429Z,20.57
2022-08-31T10:39:33.011Z,20.45
2022-08-31T10:42:07.241Z,20.42
2022-08-31T10:44:42.325Z,20.37
2022-08-31T10:47:24.943Z,20.31
2022-08-31T10:50:04.643Z,20.30
2022-08-31T10:52:58.255Z,20.28
2022-08-31T10:55:46.699Z,20.30
2022-08-31T10:58:47.065Z,20.36
2022-08-31T11:01:16.270Z,20.35
2022-08-31T11:04:13.692Z,20.33
2022-08-31T11:06:46.665Z,20.23
2022-08-31T11:09:19.403Z,20.17
2022-08-31T11:11:57.540Z,20.15
2022-08-31T11:14:34.847Z,20.22
2022-08-31T11:17:18.939Z,20.33
2022-08-31T11:20:00.210Z,20.40
2022-08-31T11:22:47.157Z,20.48
2022-08-31T11:25:48.824Z,20.67
2022-08-31T11:28:32.214Z,20.55
2022-08-31T11:31:04.104Z,20.40
2022-08-31T11:33:32.699Z,20.31
2022-08-31T11:36:10.143Z,20.27
2022-08-31T11:38:54.715Z,20.19
2022-08-31T11:41:31.734Z,20.17
2022-08-31T11:44:04.735Z,20.21
2022-08-31T11:46:41.527Z,20.31
2022-08-31T11:49:11.121Z,20.43
2022-08-31T11:51:42.047Z,20.47
2022-08-31T11:54:42.017Z,20.47
2022-08-31T11:57:16.135Z,20.38
2022-08-31T11:59:48.676Z,20.29
2022-08-31T12:02:20.095Z,20.26
2022-08-31T12:05:00.660Z,20.25
2022-08-31T12:07:43.852Z,20.26
2022-08-31T12:10:27.973Z,20.23
2022-08-31T12:13:05.630Z,20.21
2022-08-31T12:15:48.656Z,20.24
2022-08-31T12:18:23.625Z,20.30
2022-08-31T12:21:23.226Z,20.28
2022-08-31T12:24:28.835Z,20.21
2022-08-31T12:27:16.102Z,20.16
2022-08-31T12:29:44.686Z,20.15
2022-08-31T12:32:29.846Z,20.16
2022-08-31T12:35:20.379Z,20.14
2022-08-31T12:38:05.432Z,20.12
2022-08-31T12:40:36.374Z,20.15
2022-08-31T12:43:21.222Z,20.31
2022-08-31T12:45:55.799Z,20.57
2022-08-31T12:48:55.030Z,20.74
2022-08-31T12:51:51.243Z,20.85
2022-08-31T12:54:34.548Z,20.87
2022-08-31T12:57:44.188Z,20.90
2022-08-31T13:00:17.882Z,20.84
2022-08-31T13:02:51.375Z,20.81
2022-08-31T13:05:21.343Z,20.81
2022-08-31T13:07:50.706Z,20.85
2022-08-31T13:10:22.318Z,20.90
2022-08-31T13:13:02.990Z,20.96
2022-08-31T13:15:39.712Z,20.99
2022-08-31T13:18:15.370Z,21.03
2022-08-31T13:20:45.750Z,21.07
2022-08-31T13:23:22.914Z,21.05
2022-08-31T13:26:20.205Z,21.12
2022-08-31T13:28:56.938Z,21.04
2022-08-31T13:31:28.678Z,20.88
2022-08-31T13:34:03.069Z,20.73
2022-08-31T13:36:34.348Z,20.54
2022-08-31T13:39:15.827Z,20.42
2022-08-31T13:42:29.540Z,20.38
2022-08-31T13:45:03.727Z,20.35
2022-08-31T13:47:56.943Z,20.36
2022-08-31T13:50:35.531Z,20.33
2022-08-31T13:55:54.274Z,20.18
2022-08-31T13:58:31.982Z,20.18
2022-08-31T14:01:20.550Z,20.20
2022-08-31T14:03:59.328Z,20.21
2022-08-31T14:06:38.056Z,20.24
2022-08-31T14:09:16.033Z,20.24
2022-08-31T14:12:02.430Z,20.30
2022-08-31T14:14:43.706Z,20.39
2022-08-31T14:17:16.480Z,20.43
2022-08-31T14:19:45.460Z,20.39
2022-08-31T14:22:35.542Z,20.26
2022-08-31T14:25:05.066Z,20.09
2022-08-31T14:27:43.252Z,19.95
2022-08-31T14:30:11.923Z,19.83
2022-08-31T14:32:45.838Z,19.73
2022-08-31T14:35:14.306Z,19.70
2022-08-31T14:37:45.916Z,19.68
2022-08-31T14:40:14.161Z,19.68
2022-08-31T14:42:44.398Z,19.68
2022-08-31T14:45:21.332Z,19.65
2022-08-31T14:47:52.528Z,19.66
2022-08-31T14:50:25.476Z,19.66
2022-08-31T14:52:55.745Z,19.65
2022-08-31T14:55:27.283Z,19.64
2022-08-31T14:58:08.379Z,19.63
2022-08-31T15:00:43.947Z,19.67
2022-08-31T15:03:16.386Z,19.67
2022-08-31T15:05:47.615Z,19.67
2022-08-31T15:08:20.513Z,19.65
2022-08-31T15:11:00.347Z,19.64
2022-08-31T15:13:34.060Z,19.58
2022-08-31T15:16:04.193Z,19.55
2022-08-31T15:18:34.427Z,19.53
2022-08-31T15:21:05.519Z,19.50
2022-08-31T15:23:37.162Z,19.48
2022-08-31T15:26:08.128Z,19.44
2022-08-31T15:28:42.029Z,19.43
2022-08-31T15:31:20.919Z,19.39
2022-08-31T15:33:52.648Z,19.33
2022-08-31T15:36:27.825Z,19.30
2022-08-31T15:38:58.190Z,19.29
2022-08-31T15:41:29.301Z,19.30
2022-08-31T15:43:57.522Z,19.27
2022-08-31T15:46:44.990Z,19.21
2022-08-31T15:49:13.160Z,19.17
2022-08-31T15:51:49.908Z,19.14
2022-08-31T15:54:22.484Z,19.11
2022-08-31T15:56:52.862Z,19.06
2022-08-31T15:59:24.753Z,19.02
2022-08-31T16:01:53.181Z,18.96
2022-08-31T16:04:23.810Z,18.91
2022-08-31T16:06:55.465Z,18.84
2022-08-31T16:09:23.689Z,18.77
2022-08-31T16:11:52.209Z,18.67
2022-08-31T16:14:20.634Z,18.59
2022-08-31T16:16:50.336Z,18.54
2022-08-31T16:19:34.692Z,18.49
2022-08-31T16:22:07.765Z,18.48
2022-08-31T16:24:37.491Z,18.47
2022-08-31T16:27:08.941Z,18.43
2022-08-31T16:29:37.942Z,18.39
2022-08-31T16:32:08.555Z,18.35
2022-08-31T16:34:40.104Z,18.29
2022-08-31T16:37:09.011Z,18.25
2022-08-31T16:39:43.432Z,18.21
2022-08-31T16:42:12.248Z,18.16
2022-08-31T16:44:43.900Z,18.15
2022-08-31T16:47:15.814Z,18.14
2022-08-31T16:49:44.659Z,18.12
2022-08-31T16:52:24.357Z,18.06
2022-08-31T16:54:53.781Z,18.02
2022-08-31T16:57:27.205Z,17.98
2022-08-31T16:59:57.480Z,17.97
2022-08-31T17:02:27.925Z,17.94
2022-08-31T17:05:00.704Z,17.91
2022-08-31T17:07:29.626Z,17.87
2022-08-31T17:10:07.187Z,17.80
2022-08-31T17:12:37.158Z,17.74
2022-08-31T17:15:06.098Z,17.70
2022-08-31T17:17:34.235Z,17.64
2022-08-31T17:20:04.322Z,17.57
2022-08-31T17:22:33.895Z,17.50
2022-08-31T17:25:04.919Z,17.42
2022-08-31T17:27:34.774Z,17.32
2022-08-31T17:30:06.413Z,17.24
2022-08-31T17:32:41.799Z,17.14
2022-08-31T17:35:18.510Z,17.07
2022-08-31T17:37:47.980Z,17.01
2022-08-31T17:40:16.956Z,16.94
2022-08-31T17:42:46.365Z,16.88
2022-08-31T17:45:15.692Z,16.81
2022-08-31T17:47:44.018Z,16.72
2022-08-31T17:50:14.019Z,16.63
2022-08-31T17:52:42.206Z,16.56
2022-08-31T17:55:10.398Z,16.48
2022-08-31T17:57:41.988Z,16.41
2022-08-31T18:00:10.825Z,16.35
2022-08-31T18:02:39.116Z,16.29
2022-08-31T18:05:11.642Z,16.25
2022-08-31T18:07:41.090Z,16.19
2022-08-31T18:10:10.232Z,16.12
2022-08-31T18:12:41.940Z,16.04
2022-08-31T18:15:12.887Z,15.96
2022-08-31T18:17:41.005Z,15.87
2022-08-31T18:20:12.499Z,15.80
2022-08-31T18:22:41.009Z,15.73
2022-08-31T18:25:09.756Z,15.59
2022-08-31T18:27:38.018Z,15.50
2022-08-31T18:30:08.580Z,15.46
2022-08-31T18:32:36.985Z,15.42
2022-08-31T18:35:11.355Z,15.38
2022-08-31T18:37:40.846Z,15.34
2022-08-31T18:40:28.070Z,15.31
2022-08-31T18:43:15.263Z,15.27
2022-08-31T18:45:48.383Z,15.23
2022-08-31T18:48:35.385Z,15.21
2022-08-31T18:51:03.974Z,15.20
2022-08-31T18:53:34.654Z,15.19
2022-08-31T18:56:09.135Z,15.16
2022-08-31T18:58:38.611Z,15.11
2022-08-31T19:01:11.614Z,15.09
2022-08-31T19:03:43.078Z,15.08
2022-08-31T19:06:20.323Z,15.07
2022-08-31T19:08:49.284Z,15.04
2022-08-31T19:11:19.411Z,15.02
2022-08-31T19:13:51.225Z,14.98
2022-08-31T19:16:23.475Z,14.95
2022-08-31T19:18:56.385Z,14.93
2022-08-31T19:21:30.660Z,14.92
2022-08-31T19:24:01.461Z,14.88
2022-08-31T19:26:31.011Z,14.87
2022-08-31T19:29:00.121Z,14.86
2022-08-31T19:31:30.203Z,14.85
2022-08-31T19:33:58.645Z,14.84
2022-08-31T19:36:27.631Z,14.82
2022-08-31T19:38:56.563Z,14.80
2022-08-31T19:41:25.863Z,14.76
2022-08-31T19:44:07.234Z,14.74
2022-08-31T19:46:39.613Z,14.72
2022-08-31T19:49:12.038Z,14.70
2022-08-31T19:51:43.762Z,14.68
2022-08-31T19:54:12.429Z,14.66
2022-08-31T19:56:42.949Z,14.63
2022-08-31T19:59:18.521Z,14.62
2022-08-31T20:01:52.215Z,14.62
2022-08-31T20:04:23.546Z,14.61
2022-08-31T20:06:52.421Z,14.60
2022-08-31T20:09:22.888Z,14.56
2022-08-31T20:11:53.464Z,14.52
2022-08-31T20:14:22.062Z,14.48
2022-08-31T20:16:52.234Z,14.43
2022-08-31T20:19:25.274Z,14.36
2022-08-31T20:22:06.799Z,14.30
2022-08-31T20:24:43.645Z,14.23
2022-08-31T20:27:16.580Z,14.18
2022-08-31T20:29:48.328Z,14.14
2022-08-31T20:32:16.927Z,14.11
2022-08-31T20:34:45.115Z,14.06
2022-08-31T20:37:13.359Z,13.99
2022-08-31T20:39:42.303Z,13.92
2022-08-31T20:42:10.461Z,13.86
2022-08-31T20:44:38.713Z,13.81
2022-08-31T20:47:28.166Z,13.78
2022-08-31T20:50:01.949Z,13.76
2022-08-31T20:52:34.933Z,13.73
2022-08-31T20:55:08.061Z,13.69
2022-08-31T20:57:38.984Z,13.64
2022-08-31T21:00:10.565Z,13.60
2022-08-31T21:02:41.789Z,13.55
2022-08-31T21:05:36.435Z,13.51
2022-08-31T21:07:59.971Z,13.46
2022-08-31T21:10:37.910Z,13.43
2022-08-31T21:13:12.696Z,13.40
2022-08-31T21:15:44.197Z,13.38
2022-08-31T21:18:19.776Z,13.37
2022-08-31T21:20:49.015Z,13.35
2022-08-31T21:23:19.593Z,13.32
2022-08-31T21:25:48.062Z,13.31
2022-08-31T21:28:18.046Z,13.29
2022-08-31T21:30:49.702Z,13.29
2022-08-31T21:33:19.083Z,13.27
2022-08-31T21:35:47.906Z,13.26
2022-08-31T21:38:16.272Z,13.28
2022-08-31T21:40:49.834Z,13.28
2022-08-31T21:43:18.739Z,13.25
2022-08-31T21:45:47.097Z,13.23
2022-08-31T21:48:15.198Z,13.22
2022-08-31T21:50:44.140Z,13.22
2022-08-31T21:53:14.715Z,13.22
2022-08-31T21:55:42.827Z,13.22
2022-08-31T21:58:11.170Z,13.21
2022-08-31T22:00:42.241Z,13.19
2022-08-31T22:03:10.736Z,13.16
2022-08-31T22:05:41.756Z,13.13
2022-08-31T22:08:10.122Z,13.08
2022-08-31T22:10:42.767Z,13.05
2022-08-31T22:13:12.988Z,13.01
2022-08-31T22:15:42.707Z,13.00
2022-08-31T22:18:58.443Z,12.97
2022-08-31T22:20:59.977Z,12.96
2022-08-31T22:23:28.414Z,12.93
2022-08-31T22:25:57.034Z,12.89
2022-08-31T22:28:27.769Z,12.87
2022-08-31T22:30:56.525Z,12.85
2022-08-31T22:33:26.851Z,12.82
2022-08-31T22:35:55.037Z,12.81
2022-08-31T22:38:24.034Z,12.81
2022-08-31T22:40:52.669Z,12.79
2022-08-31T22:43:20.951Z,12.77
2022-08-31T22:45:49.561Z,12.77
2022-08-31T22:48:18.064Z,12.75
2022-08-31T22:50:46.436Z,12.73
2022-08-31T22:53:14.926Z,12.72
2022-08-31T22:55:43.241Z,12.72
2022-08-31T22:58:12.913Z,12.71
2022-08-31T23:00:42.133Z,12.71
2022-08-31T23:03:14.934Z,12.71
2022-08-31T23:05:44.677Z,12.69
2022-08-31T23:08:14.885Z,12.67
2022-08-31T23:10:44.319Z,12.64
2022-08-31T23:13:12.725Z,12.65
2022-08-31T23:15:41.426Z,12.63
2022-08-31T23:18:10.666Z,12.64
2022-08-31T23:20:39.010Z,12.66
2022-08-31T23:23:07.120Z,12.69
2022-08-31T23:25:36.003Z,12.71
2022-08-31T23:28:04.320Z,12.72
2022-08-31T23:30:32.700Z,12.72
2022-08-31T23:33:02.337Z,12.72
2022-08-31T23:35:30.906Z,12.74
2022-08-31T23:38:00.796Z,12.75
2022-08-31T23:40:31.168Z,12.78
2022-08-31T23:43:00.491Z,12.79
2022-08-31T23:45:28.600Z,12.82
2022-08-31T23:47:57.821Z,12.84
2022-08-31T23:50:26.130Z,12.86
2022-08-31T23:52:54.214Z,12.85
2022-08-31T23:55:26.934Z,12.85
2022-08-31T23:57:57.640Z,12.85
